Historyczne dane pomiarowe

Dodano dane terminowe – wersja testowa.

Dane z okresu 1951-2019

Wersja bazy: 1.34 [2019-03-16, lista zmian], aktualizacja planowana na 2019-04-15

Dane meteo z obszaru Polski uzyskane na podstawie danych udostępnionych przez Instytut Meteorologii i Gospodarki Wodnej – Państwowy Instytut Badawczy.

 

Wybierz Datę:    

       

TemperaturaWilgotnośćWiatrCiśnienieOpadyŚniegCzas trwania zjawisk
 Stacja t tx tn tng RH VA  wxwx mslp ppp RRR   cm mm wxwxwxwxwxwxwx
1961-08-14 14.1 18.5 9.0 4.7 82.8- 2.7 2.3---- 0.0------------
1961-08-13 14.5 16.8 13.6 14.0 83.5- 7.7 4.3---- 0.1------------
1961-08-12 17.3 22.2 15.6 16.0 87.3- 7.0 1.7---- 9.0------------
1961-08-11 19.8 22.8 16.0 13.0 92.0- 6.0 2.7---- 13.4------------
1961-08-10 21.6 26.7 16.0 15.3 82.5- 4.3 3.0---- 16.6------------
1961-08-09 22.4 28.5 14.0 10.7 72.5- 4.3 2.7---- 1.6------------
1961-08-08 19.0 23.4 13.0 7.8 69.3- 3.7 2.0---- 0.0------------
1961-08-07 21.0 26.7 16.3 13.4 82.5- 4.7 2.3---- 0.1------------
1961-08-06 23.3 31.1 14.1 12.2 69.3- 1.3 3.7---- 0.0------------
1961-08-05 18.1 23.4 14.4 13.9 81.3- 3.7 3.7---- 0.0------------
1961-08-04 15.9 20.4 8.5 7.0 72.5- 5.0 3.3---- 0.0------------
1961-08-03 16.2 20.7 13.8 12.6 81.5- 6.0 3.0---- 0.0------------
1961-08-02 18.4 25.4 9.8 11.9 73.8- 1.3 2.7---- 0.0------------
1961-08-01 13.0 18.0 12.0 14.3 92.3- 5.7 5.7---- 1.0------------
1961-07-31 14.2 17.1 12.6 14.8 91.0- 7.3 5.0---- 6.1------------
1961-07-30 13.0 14.5 12.3 13.7 97.8- 8.0 4.3---- 13.8------------
1961-07-29 14.5 18.8 12.7 14.9 89.3- 7.3 3.3---- 0.8------------
1961-07-28 17.6 22.3 15.2 17.7 87.8- 6.7 3.0---- 28.2------------
1961-07-27 20.7 25.5 13.8 13.1 64.3- 6.3 3.0---- 0.0------------
1961-07-26 16.3 21.4 9.9 13.1 79.0- 7.3 3.0---- 0.0------------
1961-07-25 14.2 17.3 9.0 11.0 82.0- 7.3 4.0---- 0.0------------
1961-07-24 14.5 18.7 12.4 11.1 77.3- 6.3 4.3---- 0.0------------
1961-07-23 14.6 18.3 12.1 11.1 86.8- 7.7 3.7---- 0.0------------
1961-07-22 14.7 20.0 13.1 12.7 91.0- 6.3 4.0---- 3.1------------
1961-07-21 15.6 19.4 10.6 9.5 84.3- 6.7 4.0---- 2.3------------
1961-07-20 16.6 22.4 8.5 6.6 77.5- 3.3 1.0---- 0.0------------
1961-07-19 15.3 20.4 9.5 6.6 82.5- 3.0 1.7---- 0.5------------
1961-07-18 13.8 17.8 9.5 8.0 91.0- 6.0 4.0---- 0.8------------
1961-07-17 16.2 23.1 9.6 5.1 78.5- 6.0 3.3---- 0.6------------
1961-07-16 14.1 17.5 10.7 6.7 94.8- 5.3 1.7---- 8.4------------
1961-07-15 16.6 22.6 9.0 4.3 82.0- 4.7 2.3---- 5.5------------
1961-07-14 15.2 18.6 13.5 11.8 78.8- 5.7 5.0---- 0.0------------
1961-07-13 20.5 28.3 14.5 11.1 82.0- 6.0 5.7---- 3.4------------
1961-07-12 19.1 26.1 10.2 7.0 84.8- 4.7 2.0---- 0.2------------
1961-07-11 15.6 21.3 10.6 8.9 68.8- 3.0 4.7---- 7.7------------
1961-07-10 14.1 18.6 10.2 9.0 73.3- 5.0 5.3---- 1.1------------
1961-07-09 15.9 23.7 7.3 2.1 72.5- 4.7 4.7---- 0.0------------
1961-07-08 14.9 21.2 8.9 5.7 64.8- 3.7 2.7---- 0.0------------
1961-07-07 12.5 17.5 9.0 7.1 77.5- 6.0 4.3---- 0.0------------
1961-07-06 12.7 16.2 6.9 6.5 82.3- 3.7 5.3---- 0.4------------
1961-07-05 14.2 19.6 12.7 12.5 70.3- 6.0 4.3---- 0.0------------
1961-07-04 20.4 24.6 16.8 17.4 84.3- 5.0 5.7---- 5.3------------
1961-07-03 23.2 30.5 11.0 6.7 60.0- 1.0 1.7---- 0.0------------
1961-07-02 21.5 28.7 11.0 6.0 64.0- 0.0 1.7---- 0.0------------
1961-07-01 19.8 25.6 11.7 6.8 61.0- 1.3 1.3---- 0.0------------
1961-06-30 18.5 24.8 9.2 5.5 69.3- 0.0 3.7---- 0.0------------
1961-06-29 15.5 19.1 9.9 8.0 79.8- 6.0 3.7---- 0.0------------
1961-06-28 14.2 20.0 12.6 15.1 80.5- 5.3 5.7---- 3.9------------
1961-06-27 23.0 32.4 15.8 13.0 72.5- 5.7 4.0---- 28.2------------
1961-06-26 22.3 28.7 14.6 10.6 72.5- 3.7 3.0---- 0.0------------
1961-06-25 21.1 27.4 13.5 10.3 65.3- 2.0 4.7---- 0.0------------
1961-06-24 17.4 22.8 12.0 8.3 68.3- 5.3 5.3---- 0.0------------
1961-06-23 17.2 23.0 14.4 11.0 81.0- 5.3 2.7---- 4.2------------
1961-06-22 16.2 21.4 9.5 6.0 61.0- 3.3 2.3---- 5.2------------
1961-06-21 15.2 23.2 5.2 1.0 73.5- 4.0 3.7---- 4.7------------
1961-06-20 14.1 19.3 7.4 2.4 62.0- 1.3 3.7---- 0.0------------
1961-06-19 16.3 20.9 14.8 11.7 78.8- 5.3 3.0---- 0.0------------
1961-06-18 19.6 26.0 12.5 8.3 67.3- 4.3 3.3---- 0.2------------
1961-06-17 16.8 22.3 8.8 6.6 71.8- 5.3 5.0---- 0.0------------
1961-06-16 12.2 17.8 10.7 10.3 87.0- 6.3 4.7---- 1.0------------
312.8 ms

 

Źródłem pochodzenia danych jest Instytut Meteorologii i Gospodarki Wodnej – Państwowy Instytut Badawczy. Dane Instytutu Meteorologii i Gospodarki Wodnej – Państwowego Instytutu Badawczego zostały przetworzone.

Dane źródłowe można odnaleźć na stronie https://dane.imgw.pl